createdAt,value
2018-08-22T00:02:08.842Z,3.90
2018-08-22T00:04:38.419Z,4.50
2018-08-22T00:07:07.761Z,3.70
2018-08-22T00:09:37.273Z,4.47
2018-08-22T00:12:07.016Z,3.37
2018-08-22T00:14:36.449Z,3.60
2018-08-22T00:17:07.043Z,3.10
2018-08-22T00:19:36.571Z,3.60
2018-08-22T00:22:06.065Z,2.90
2018-08-22T00:24:35.557Z,4.30
2018-08-22T00:27:05.221Z,3.50
2018-08-22T00:29:35.266Z,3.90
2018-08-22T00:32:04.803Z,3.03
2018-08-22T00:34:34.206Z,2.77
2018-08-22T00:37:03.667Z,3.20
2018-08-22T00:39:33.069Z,2.83
2018-08-22T00:42:02.344Z,3.03
2018-08-22T00:44:31.611Z,2.90
2018-08-22T00:47:00.973Z,3.37
2018-08-22T00:49:30.231Z,3.53
2018-08-22T00:51:59.530Z,3.60
2018-08-22T00:54:28.874Z,2.97
2018-08-22T00:56:58.215Z,3.37
2018-08-22T00:59:27.528Z,3.20
2018-08-22T01:01:56.980Z,3.60
2018-08-22T01:04:26.311Z,2.83
2018-08-22T01:06:55.622Z,3.20
2018-08-22T01:09:24.912Z,3.00
2018-08-22T01:11:54.289Z,2.70
2018-08-22T01:14:23.532Z,3.03
2018-08-22T01:16:52.843Z,2.50
2018-08-22T01:19:22.124Z,2.73
2018-08-22T01:21:51.424Z,2.70
2018-08-22T01:24:21.220Z,2.40
2018-08-22T01:26:50.534Z,2.87
2018-08-22T01:29:19.862Z,2.50
2018-08-22T01:31:49.192Z,2.83
2018-08-22T01:34:18.439Z,3.00
2018-08-22T01:36:47.695Z,3.30
2018-08-22T01:39:16.961Z,3.20
2018-08-22T01:41:50.303Z,2.80
2018-08-22T01:44:19.843Z,3.03
2018-08-22T01:46:49.095Z,4.23
2018-08-22T01:49:18.393Z,2.87
2018-08-22T01:51:47.729Z,2.83
2018-08-22T01:54:17.201Z,2.70
2018-08-22T01:56:46.525Z,3.10
2018-08-22T01:59:15.911Z,2.77
2018-08-22T02:01:45.215Z,2.80
2018-08-22T02:04:14.457Z,3.00
2018-08-22T02:06:44.241Z,2.70
2018-08-22T02:09:13.487Z,2.57
2018-08-22T02:11:42.945Z,2.97
2018-08-22T02:14:12.771Z,2.87
2018-08-22T02:16:42.037Z,3.07
2018-08-22T02:19:11.511Z,2.80
2018-08-22T02:21:40.794Z,2.80
2018-08-22T02:24:10.151Z,2.70
2018-08-22T02:26:39.426Z,2.90
2018-08-22T02:29:08.911Z,3.40
2018-08-22T02:31:38.402Z,2.80
2018-08-22T02:34:07.676Z,3.50
2018-08-22T02:36:37.014Z,4.00
2018-08-22T02:39:08.525Z,3.17
2018-08-22T02:41:37.947Z,2.73
2018-08-22T02:44:07.472Z,3.00
2018-08-22T02:46:36.743Z,2.73
2018-08-22T02:49:06.633Z,2.93
2018-08-22T02:51:35.907Z,3.07
2018-08-22T02:54:05.153Z,3.17
2018-08-22T02:56:34.809Z,3.00
2018-08-22T02:59:04.162Z,3.07
2018-08-22T03:01:33.505Z,3.33
2018-08-22T03:04:02.885Z,2.97
2018-08-22T03:06:32.324Z,3.37
2018-08-22T03:09:01.656Z,3.30
2018-08-22T03:11:31.802Z,2.93
2018-08-22T03:14:01.102Z,3.33
2018-08-22T03:16:30.475Z,3.43
2018-08-22T03:18:59.932Z,3.27
2018-08-22T03:21:29.197Z,2.87
2018-08-22T03:23:58.464Z,2.50
2018-08-22T03:26:27.743Z,2.77
2018-08-22T03:28:56.987Z,3.27
2018-08-22T03:31:27.095Z,2.60
2018-08-22T03:33:56.446Z,3.20
2018-08-22T03:36:25.878Z,3.67
2018-08-22T03:38:55.130Z,2.87
2018-08-22T03:41:24.507Z,2.67
2018-08-22T03:43:53.847Z,3.03
2018-08-22T03:46:23.167Z,2.63
2018-08-22T03:48:52.532Z,3.30
2018-08-22T03:51:21.914Z,2.90
2018-08-22T03:53:51.245Z,2.47
2018-08-22T03:56:20.834Z,2.77
2018-08-22T03:58:50.703Z,3.10
2018-08-22T04:01:20.009Z,2.80
2018-08-22T04:03:49.341Z,2.80
2018-08-22T04:06:18.634Z,2.93
2018-08-22T04:08:48.124Z,3.30
2018-08-22T04:11:17.428Z,3.13
2018-08-22T04:13:46.675Z,2.90
2018-08-22T04:16:15.956Z,2.83
2018-08-22T04:18:45.323Z,2.80
2018-08-22T04:21:14.748Z,3.23
2018-08-22T04:23:44.052Z,3.00
2018-08-22T04:26:13.348Z,2.97
2018-08-22T04:28:42.645Z,2.93
2018-08-22T04:31:11.960Z,3.07
2018-08-22T04:33:41.269Z,2.70
2018-08-22T04:36:10.553Z,2.53
2018-08-22T04:38:39.837Z,3.10
2018-08-22T04:41:09.506Z,2.90
2018-08-22T04:43:38.892Z,3.00
2018-08-22T04:46:08.146Z,3.23
2018-08-22T04:48:37.469Z,3.47
2018-08-22T04:51:06.902Z,2.70
2018-08-22T04:53:36.248Z,3.37
2018-08-22T04:56:05.619Z,3.17
2018-08-22T04:58:34.884Z,3.17
2018-08-22T05:01:04.271Z,3.50
2018-08-22T05:03:33.828Z,3.00
2018-08-22T05:06:03.100Z,2.87
2018-08-22T05:08:32.415Z,2.20
2018-08-22T05:11:01.758Z,2.77
2018-08-22T05:13:31.053Z,2.73
2018-08-22T05:16:00.369Z,2.93
2018-08-22T05:18:29.672Z,2.47
2018-08-22T05:20:58.994Z,2.53
2018-08-22T05:23:29.283Z,3.00
2018-08-22T05:25:59.127Z,3.43
2018-08-22T05:28:28.413Z,2.50
2018-08-22T05:30:57.832Z,3.77
2018-08-22T05:33:27.168Z,3.03
2018-08-22T05:35:56.460Z,2.77
2018-08-22T05:38:25.794Z,3.30
2018-08-22T05:40:55.158Z,3.03
2018-08-22T05:43:24.499Z,3.03
2018-08-22T05:45:53.790Z,3.17
2018-08-22T05:48:23.199Z,3.67
2018-08-22T05:50:53.114Z,2.50
2018-08-22T05:53:22.418Z,3.07
2018-08-22T05:55:51.918Z,3.37
2018-08-22T05:58:21.204Z,2.77
2018-08-22T06:00:50.496Z,2.30
2018-08-22T06:03:19.940Z,2.53
2018-08-22T06:05:49.271Z,2.60
2018-08-22T06:08:18.586Z,2.40
2018-08-22T06:10:48.017Z,2.93
2018-08-22T06:13:17.402Z,2.80
2018-08-22T06:15:46.709Z,2.47
2018-08-22T06:18:16.135Z,2.33
2018-08-22T06:20:45.391Z,2.30
2018-08-22T06:23:14.679Z,2.37
2018-08-22T06:25:44.080Z,1.93
2018-08-22T06:28:13.435Z,1.87
2018-08-22T06:30:43.140Z,2.07
2018-08-22T06:33:12.527Z,2.07
2018-08-22T06:35:41.837Z,1.83
2018-08-22T06:38:11.128Z,1.97
2018-08-22T06:40:40.487Z,2.40
2018-08-22T06:43:09.787Z,2.00
2018-08-22T06:45:39.028Z,2.43
2018-08-22T06:48:08.338Z,2.30
2018-08-22T06:50:37.667Z,2.20
2018-08-22T06:53:07.010Z,2.90
2018-08-22T06:55:36.406Z,2.20
2018-08-22T06:58:05.740Z,2.23
2018-08-22T07:00:35.050Z,2.10
2018-08-22T07:03:04.362Z,2.27
2018-08-22T07:05:33.759Z,2.30
2018-08-22T07:08:03.243Z,1.93
2018-08-22T07:10:32.540Z,2.20
2018-08-22T07:13:01.778Z,2.40
2018-08-22T07:15:31.241Z,1.97
2018-08-22T07:18:01.275Z,1.90
2018-08-22T07:20:30.583Z,2.30
2018-08-22T07:22:59.930Z,2.00
2018-08-22T07:25:29.518Z,2.00
2018-08-22T07:27:58.879Z,2.10
2018-08-22T07:30:28.174Z,1.60
2018-08-22T07:32:57.555Z,1.90
2018-08-22T07:35:26.869Z,1.97
2018-08-22T07:37:56.184Z,1.87
2018-08-22T07:40:25.589Z,2.30
2018-08-22T07:42:54.923Z,1.77
2018-08-22T07:45:24.376Z,1.90
2018-08-22T07:47:53.770Z,3.37
2018-08-22T07:50:23.209Z,2.13
2018-08-22T07:52:57.727Z,2.30
2018-08-22T07:55:26.994Z,1.80
2018-08-22T07:57:56.327Z,1.93
2018-08-22T08:00:25.865Z,1.60
2018-08-22T08:02:55.219Z,2.00
2018-08-22T08:05:24.583Z,1.93
2018-08-22T08:07:53.978Z,1.70
2018-08-22T08:10:28.423Z,2.30
2018-08-22T08:12:57.733Z,1.60
2018-08-22T08:15:27.050Z,1.90
2018-08-22T08:17:56.693Z,1.77
2018-08-22T08:20:26.500Z,1.53
2018-08-22T08:22:55.943Z,2.40
2018-08-22T08:25:25.282Z,2.70
2018-08-22T08:27:54.609Z,1.80
2018-08-22T08:30:23.885Z,1.40
2018-08-22T08:32:53.187Z,1.63
2018-08-22T08:35:22.511Z,1.60
2018-08-22T08:37:51.953Z,1.70
2018-08-22T08:40:21.293Z,1.37
2018-08-22T08:42:51.164Z,1.60
2018-08-22T08:45:20.617Z,1.87
2018-08-22T08:47:50.048Z,1.90
2018-08-22T08:50:19.329Z,1.47
2018-08-22T08:52:48.613Z,1.93
2018-08-22T08:55:18.094Z,1.60
2018-08-22T08:57:47.298Z,1.70
2018-08-22T09:00:16.650Z,1.33
2018-08-22T09:02:46.023Z,2.83
2018-08-22T09:05:15.443Z,1.60
2018-08-22T09:07:44.770Z,1.60
2018-08-22T09:10:14.089Z,2.23
2018-08-22T09:12:43.442Z,2.00
2018-08-22T09:15:12.776Z,1.30
2018-08-22T09:17:42.137Z,1.40
2018-08-22T09:20:11.475Z,1.83
2018-08-22T09:22:40.813Z,1.77
2018-08-22T09:25:10.139Z,1.50
2018-08-22T09:27:39.763Z,1.40
2018-08-22T09:30:09.057Z,1.40
2018-08-22T09:32:38.409Z,2.00
2018-08-22T09:35:07.816Z,1.63
2018-08-22T09:37:37.158Z,1.83
2018-08-22T09:40:06.584Z,1.63
2018-08-22T09:42:35.878Z,1.50
2018-08-22T09:45:05.195Z,1.40
2018-08-22T09:47:34.483Z,1.40
2018-08-22T09:50:03.978Z,1.70
2018-08-22T09:52:33.286Z,1.77
2018-08-22T09:55:06.352Z,1.60
2018-08-22T09:57:35.698Z,1.50
2018-08-22T10:00:05.918Z,1.43
2018-08-22T10:02:35.172Z,1.50
2018-08-22T10:05:04.568Z,1.47
2018-08-22T10:07:33.918Z,1.33
2018-08-22T10:10:03.933Z,1.50
2018-08-22T10:12:33.234Z,1.40
2018-08-22T10:15:02.583Z,1.50
2018-08-22T10:17:31.928Z,1.67
2018-08-22T10:20:01.278Z,1.13
2018-08-22T10:22:30.935Z,1.40
2018-08-22T10:25:00.324Z,1.33
2018-08-22T10:27:29.697Z,1.40
2018-08-22T10:29:59.026Z,1.10
2018-08-22T10:32:28.576Z,1.20
2018-08-22T10:34:57.884Z,1.70
2018-08-22T10:37:27.214Z,1.07
2018-08-22T10:39:56.530Z,1.07
2018-08-22T10:42:25.814Z,1.50
2018-08-22T10:44:55.085Z,1.27
2018-08-22T10:47:24.442Z,1.83
2018-08-22T10:49:54.073Z,1.47
2018-08-22T10:52:23.374Z,1.50
2018-08-22T10:54:53.134Z,0.93
2018-08-22T10:57:22.740Z,1.63
2018-08-22T10:59:52.588Z,1.00
2018-08-22T11:02:22.037Z,1.20
2018-08-22T11:04:51.365Z,1.70
2018-08-22T11:07:20.687Z,1.20
2018-08-22T11:09:50.068Z,1.17
2018-08-22T11:12:19.394Z,1.00
2018-08-22T11:14:48.665Z,1.47
2018-08-22T11:17:18.511Z,1.13
2018-08-22T11:19:47.783Z,1.27
2018-08-22T11:22:33.986Z,1.07
2018-08-22T11:25:20.387Z,1.30
2018-08-22T11:28:06.615Z,1.00
2018-08-22T11:30:53.041Z,1.73
2018-08-22T11:33:39.710Z,1.00
2018-08-22T11:36:07.599Z,0.80
2018-08-22T11:38:36.918Z,1.20
2018-08-22T11:41:06.336Z,1.23
2018-08-22T11:43:35.627Z,1.37
2018-08-22T11:46:05.003Z,0.80
2018-08-22T11:48:34.323Z,1.00
2018-08-22T11:51:03.664Z,1.00
2018-08-22T11:53:32.933Z,1.00
2018-08-22T11:56:02.996Z,1.00
2018-08-22T11:58:32.273Z,1.20
2018-08-22T12:01:01.654Z,1.00
2018-08-22T12:03:31.000Z,1.23
2018-08-22T12:06:00.354Z,0.90
2018-08-22T12:08:29.752Z,1.10
2018-08-22T12:10:59.127Z,1.20
2018-08-22T12:13:28.419Z,0.87
2018-08-22T12:15:57.749Z,1.20
2018-08-22T12:18:28.193Z,1.33
2018-08-22T12:20:57.548Z,1.00
2018-08-22T12:23:26.888Z,1.00
2018-08-22T12:25:56.249Z,1.30
2018-08-22T12:28:25.570Z,1.17
2018-08-22T12:30:54.852Z,1.20
2018-08-22T12:33:24.415Z,1.10
2018-08-22T12:35:53.779Z,1.00
2018-08-22T12:38:23.174Z,1.10
2018-08-22T12:40:52.851Z,0.97
2018-08-22T12:43:22.225Z,3.03
2018-08-22T12:45:51.994Z,1.13
2018-08-22T12:48:21.456Z,1.37
2018-08-22T12:50:51.830Z,1.00
2018-08-22T12:53:21.145Z,0.87
2018-08-22T12:55:50.945Z,1.20
2018-08-22T12:58:20.246Z,1.30
2018-08-22T13:00:49.971Z,1.30
2018-08-22T13:03:19.680Z,0.93
2018-08-22T13:05:49.081Z,0.90
2018-08-22T13:08:18.408Z,1.17
2018-08-22T13:10:47.846Z,0.83
2018-08-22T13:13:17.161Z,0.93
2018-08-22T13:15:46.520Z,0.80
2018-08-22T13:18:15.983Z,1.00
2018-08-22T13:20:45.304Z,1.27
2018-08-22T13:23:14.676Z,1.10
2018-08-22T13:25:44.281Z,1.03
2018-08-22T13:28:13.612Z,1.20
2018-08-22T13:30:42.989Z,1.47
2018-08-22T13:33:12.381Z,0.97
2018-08-22T13:35:41.676Z,0.90
2018-08-22T13:38:11.018Z,0.70
2018-08-22T13:40:40.380Z,1.23
2018-08-22T13:43:09.751Z,1.00
2018-08-22T13:45:39.091Z,1.07
2018-08-22T13:48:09.094Z,1.03
2018-08-22T13:50:38.505Z,1.20
2018-08-22T13:53:07.864Z,1.00
2018-08-22T13:55:37.210Z,0.90
2018-08-22T13:58:06.574Z,1.00
2018-08-22T14:00:35.983Z,1.10
2018-08-22T14:03:05.380Z,0.90
2018-08-22T14:05:34.728Z,1.00
2018-08-22T14:08:04.154Z,1.00
2018-08-22T14:10:33.630Z,1.10
2018-08-22T14:13:03.021Z,1.00
2018-08-22T14:15:32.543Z,1.20
2018-08-22T14:18:01.894Z,1.03
2018-08-22T14:20:31.545Z,1.00
2018-08-22T14:23:00.857Z,1.07
2018-08-22T14:25:30.179Z,1.30
2018-08-22T14:27:59.500Z,1.10
2018-08-22T14:30:28.826Z,1.13
2018-08-22T14:32:58.265Z,1.43
2018-08-22T14:35:27.562Z,1.00
2018-08-22T14:37:56.895Z,1.30
2018-08-22T14:40:26.250Z,0.73
2018-08-22T14:42:55.548Z,0.80
2018-08-22T14:45:24.872Z,1.03
2018-08-22T14:47:54.204Z,1.00
2018-08-22T14:50:23.499Z,1.20
2018-08-22T14:52:52.875Z,1.00
2018-08-22T14:55:22.274Z,1.10
2018-08-22T14:57:51.599Z,0.83
2018-08-22T15:00:20.885Z,1.00
2018-08-22T15:02:50.562Z,1.07
2018-08-22T15:05:19.673Z,1.20
2018-08-22T15:07:49.221Z,1.10
2018-08-22T15:10:19.204Z,1.30
2018-08-22T15:12:49.356Z,1.40
2018-08-22T15:15:18.620Z,1.13
2018-08-22T15:17:48.219Z,1.10
2018-08-22T15:20:17.576Z,1.30
2018-08-22T15:22:46.951Z,1.50
2018-08-22T15:25:16.632Z,1.23
2018-08-22T15:27:45.996Z,1.37
2018-08-22T15:30:15.337Z,1.47
2018-08-22T15:32:44.740Z,1.97
2018-08-22T15:35:14.090Z,1.30
2018-08-22T15:37:43.488Z,1.20
2018-08-22T15:40:13.052Z,1.80
2018-08-22T15:42:42.351Z,1.30
2018-08-22T15:45:12.573Z,1.50
2018-08-22T15:47:41.934Z,1.70
2018-08-22T15:50:11.220Z,1.20
2018-08-22T15:52:40.550Z,1.93
2018-08-22T15:55:13.417Z,1.67
2018-08-22T15:58:05.485Z,1.60
2018-08-22T16:00:45.746Z,1.80
2018-08-22T16:03:15.038Z,1.33
2018-08-22T16:05:45.239Z,1.43
2018-08-22T16:08:19.894Z,1.90
2018-08-22T16:10:52.721Z,1.40
2018-08-22T16:13:29.243Z,1.90
2018-08-22T16:16:05.042Z,1.80
2018-08-22T16:18:35.406Z,1.60
2018-08-22T16:21:07.237Z,2.20
2018-08-22T16:23:36.543Z,1.87
2018-08-22T16:26:06.277Z,1.80
2018-08-22T16:28:51.888Z,1.90
2018-08-22T16:31:22.182Z,1.97
2018-08-22T16:33:51.555Z,1.70
2018-08-22T16:36:25.871Z,1.80
2018-08-22T16:38:55.456Z,2.27
2018-08-22T16:41:24.774Z,1.80
2018-08-22T16:43:54.079Z,1.60
2018-08-22T16:46:23.394Z,2.03
2018-08-22T16:48:54.243Z,2.00
2018-08-22T16:51:24.111Z,1.80
2018-08-22T16:54:01.771Z,2.30
2018-08-22T16:56:32.946Z,2.60
2018-08-22T16:59:08.520Z,2.03
2018-08-22T17:01:39.981Z,2.87
2018-08-22T17:04:09.303Z,2.33
2018-08-22T17:06:38.597Z,1.83
2018-08-22T17:09:10.118Z,1.67
2018-08-22T17:11:39.559Z,2.90
2018-08-22T17:14:08.940Z,2.20
2018-08-22T17:16:38.635Z,2.00
2018-08-22T17:19:07.952Z,2.40
2018-08-22T17:21:37.331Z,2.10
2018-08-22T17:24:06.990Z,2.97
2018-08-22T17:26:36.371Z,2.00
2018-08-22T17:29:05.687Z,2.40
2018-08-22T17:31:35.103Z,3.03
2018-08-22T17:34:04.709Z,2.93
2018-08-22T17:36:34.011Z,2.97
2018-08-22T17:39:03.680Z,3.00
2018-08-22T17:41:32.981Z,2.60
2018-08-22T17:44:19.635Z,2.57
2018-08-22T17:46:50.757Z,2.13
2018-08-22T17:49:20.062Z,2.50
2018-08-22T17:51:59.108Z,2.20
2018-08-22T17:54:28.839Z,3.10
2018-08-22T17:57:16.643Z,3.30
2018-08-22T17:59:45.977Z,2.57
2018-08-22T18:02:15.359Z,3.07
2018-08-22T18:05:01.216Z,2.67
2018-08-22T18:07:30.847Z,3.13
2018-08-22T18:10:00.173Z,3.10
2018-08-22T18:12:29.678Z,2.63
2018-08-22T18:15:01.817Z,3.07
2018-08-22T18:17:31.181Z,2.63
2018-08-22T18:20:00.833Z,2.70
2018-08-22T18:22:34.780Z,3.40
2018-08-22T18:25:04.135Z,3.70
2018-08-22T18:27:33.548Z,3.80
2018-08-22T18:30:03.169Z,3.90
2018-08-22T18:32:32.519Z,2.87
2018-08-22T18:35:06.267Z,3.13
2018-08-22T18:37:35.521Z,3.23
2018-08-22T18:40:21.272Z,3.20
2018-08-22T18:42:54.385Z,2.67
2018-08-22T18:45:24.612Z,9.47
2018-08-22T18:47:54.183Z,5.00
2018-08-22T18:50:23.509Z,6.30
2018-08-22T18:52:56.276Z,5.20
2018-08-22T18:55:34.995Z,4.30
2018-08-22T18:58:05.669Z,4.07
2018-08-22T19:00:38.763Z,3.70
2018-08-22T19:03:08.490Z,3.90
2018-08-22T19:05:38.761Z,3.40
2018-08-22T19:08:11.272Z,4.20
2018-08-22T19:10:42.103Z,6.40
2018-08-22T19:13:17.016Z,4.70
2018-08-22T19:15:50.169Z,3.80
2018-08-22T19:18:19.831Z,4.23
2018-08-22T19:20:49.833Z,3.80
2018-08-22T19:23:19.236Z,11.37
2018-08-22T19:25:56.283Z,5.20
2018-08-22T19:28:31.267Z,5.27
2018-08-22T19:31:00.927Z,4.30
2018-08-22T19:33:30.891Z,4.50
2018-08-22T19:36:00.416Z,4.20
2018-08-22T19:38:30.012Z,4.53
2018-08-22T19:41:13.878Z,3.90
2018-08-22T19:43:43.557Z,3.87
2018-08-22T19:46:13.036Z,3.40
2018-08-22T19:48:42.751Z,3.63
2018-08-22T19:51:12.164Z,4.27
2018-08-22T19:53:58.894Z,3.43
2018-08-22T19:56:29.049Z,4.30
2018-08-22T19:58:58.780Z,3.93
2018-08-22T20:01:32.259Z,3.50
2018-08-22T20:04:02.284Z,3.70
2018-08-22T20:06:31.883Z,3.80
2018-08-22T20:09:02.485Z,3.23
2018-08-22T20:11:33.760Z,3.40
2018-08-22T20:14:05.031Z,4.30
2018-08-22T20:16:34.612Z,3.90
2018-08-22T20:19:05.452Z,4.00
2018-08-22T20:21:36.996Z,4.63
2018-08-22T20:24:08.087Z,4.90
2018-08-22T20:26:38.123Z,5.93
2018-08-22T20:29:07.938Z,4.70
2018-08-22T20:31:37.750Z,3.90
2018-08-22T20:34:16.657Z,3.47
2018-08-22T20:36:49.416Z,4.00
2018-08-22T20:39:18.795Z,3.60
2018-08-22T20:41:50.853Z,4.07
2018-08-22T20:44:21.759Z,3.73
2018-08-22T20:46:51.122Z,3.70
2018-08-22T20:49:22.749Z,3.17
2018-08-22T20:51:53.110Z,3.23
2018-08-22T20:54:24.648Z,3.67
2018-08-22T20:56:59.455Z,3.20
2018-08-22T20:59:30.073Z,3.17
2018-08-22T21:02:03.587Z,2.90
2018-08-22T21:04:33.803Z,3.70
2018-08-22T21:07:04.294Z,3.70
2018-08-22T21:09:34.283Z,3.10
2018-08-22T21:12:04.590Z,3.17
2018-08-22T21:14:34.271Z,3.97
2018-08-22T21:17:03.860Z,3.00
2018-08-22T21:19:33.550Z,3.07
2018-08-22T21:22:04.499Z,2.77
2018-08-22T21:24:34.181Z,3.57
2018-08-22T21:27:04.097Z,3.20
2018-08-22T21:29:33.747Z,2.93
2018-08-22T21:32:03.096Z,3.33
2018-08-22T21:34:32.448Z,3.37
2018-08-22T21:37:02.080Z,3.07
2018-08-22T21:39:31.483Z,3.57
2018-08-22T21:42:00.912Z,3.50
2018-08-22T21:44:30.411Z,3.60
2018-08-22T21:47:04.867Z,3.40
2018-08-22T21:49:34.293Z,3.20
2018-08-22T21:52:03.673Z,3.30
2018-08-22T21:54:33.020Z,4.30
2018-08-22T21:57:02.547Z,3.33
2018-08-22T21:59:32.005Z,3.20
2018-08-22T22:02:07.155Z,3.00
2018-08-22T22:04:38.222Z,2.77
2018-08-22T22:07:09.168Z,3.00
2018-08-22T22:09:39.355Z,3.13
2018-08-22T22:12:13.963Z,3.07
2018-08-22T22:14:44.923Z,3.17
2018-08-22T22:17:14.890Z,3.23
2018-08-22T22:19:44.191Z,3.30
2018-08-22T22:22:13.548Z,3.10
2018-08-22T22:24:52.091Z,2.80
2018-08-22T22:27:21.604Z,2.93
2018-08-22T22:29:59.729Z,2.93
2018-08-22T22:32:29.039Z,3.60
2018-08-22T22:34:58.350Z,2.93
2018-08-22T22:37:27.882Z,3.20
2018-08-22T22:39:57.263Z,2.90
2018-08-22T22:42:27.805Z,3.23
2018-08-22T22:44:58.383Z,3.20
2018-08-22T22:47:28.828Z,2.97
2018-08-22T22:49:58.825Z,3.13
2018-08-22T22:52:40.613Z,3.33
2018-08-22T22:55:10.842Z,3.20
2018-08-22T22:57:41.379Z,3.17
2018-08-22T23:00:13.159Z,2.50
2018-08-22T23:02:43.946Z,2.80
2018-08-22T23:05:13.813Z,3.00
2018-08-22T23:07:43.592Z,2.63
2018-08-22T23:10:14.617Z,2.90
2018-08-22T23:12:45.052Z,3.03
2018-08-22T23:15:19.463Z,3.00
2018-08-22T23:17:52.726Z,2.73
2018-08-22T23:20:39.116Z,3.10
2018-08-22T23:23:30.936Z,3.03
2018-08-22T23:26:07.988Z,3.20
2018-08-22T23:28:37.444Z,2.90
2018-08-22T23:31:06.935Z,2.90
2018-08-22T23:33:36.367Z,2.57
2018-08-22T23:36:05.834Z,2.67
2018-08-22T23:38:36.913Z,2.70
2018-08-22T23:41:06.604Z,2.87
2018-08-22T23:43:41.779Z,2.70
2018-08-22T23:46:12.414Z,2.50
2018-08-22T23:48:42.108Z,3.17
2018-08-22T23:51:12.863Z,3.23
2018-08-22T23:53:47.194Z,3.07
2018-08-22T23:56:25.636Z,2.17
2018-08-22T23:58:55.650Z,2.90
